sensor_id;sensor_type;location;lat;lon;timestamp;pressure;altitude;pressure_sealevel;temperature;humidity
27840;BME280;15207;42.182;24.308;2024-03-23T00:53:27;99402.56;;;3.40;80.38
27840;BME280;15207;42.182;24.308;2024-03-23T00:55:53;99391.94;;;3.22;81.78
27840;BME280;15207;42.182;24.308;2024-03-23T00:58:18;99393.69;;;3.41;81.42
27840;BME280;15207;42.182;24.308;2024-03-23T01:00:43;99392.41;;;3.50;80.86
27840;BME280;15207;42.182;24.308;2024-03-23T01:03:09;99398.28;;;3.37;81.41
27840;BME280;15207;42.182;24.308;2024-03-23T01:05:34;99396.00;;;2.91;82.80
27840;BME280;15207;42.182;24.308;2024-03-23T01:08:00;99395.41;;;3.23;82.01
27840;BME280;15207;42.182;24.308;2024-03-23T01:10:25;99403.50;;;3.00;81.78
27840;BME280;15207;42.182;24.308;2024-03-23T01:12:50;99400.44;;;2.71;84.37
27840;BME280;15207;42.182;24.308;2024-03-23T01:15:16;99408.78;;;2.41;87.48
27840;BME280;15207;42.182;24.308;2024-03-23T01:17:41;99406.38;;;2.56;88.23
27840;BME280;15207;42.182;24.308;2024-03-23T01:20:07;99406.84;;;2.85;86.36
27840;BME280;15207;42.182;24.308;2024-03-23T01:22:32;99401.44;;;2.88;85.81
27840;BME280;15207;42.182;24.308;2024-03-23T01:24:58;99406.56;;;2.91;84.65
27840;BME280;15207;42.182;24.308;2024-03-23T01:27:23;99403.31;;;3.05;84.29
27840;BME280;15207;42.182;24.308;2024-03-23T01:29:49;99414.84;;;3.04;86.14
27840;BME280;15207;42.182;24.308;2024-03-23T01:32:14;99407.44;;;2.91;84.87
27840;BME280;15207;42.182;24.308;2024-03-23T01:34:40;99408.06;;;2.77;85.43
27840;BME280;15207;42.182;24.308;2024-03-23T01:37:05;99410.53;;;3.01;84.17
27840;BME280;15207;42.182;24.308;2024-03-23T01:39:30;99405.63;;;2.73;83.26
27840;BME280;15207;42.182;24.308;2024-03-23T01:41:56;99408.31;;;2.92;82.95
27840;BME280;15207;42.182;24.308;2024-03-23T01:44:21;99408.66;;;3.23;82.36
27840;BME280;15207;42.182;24.308;2024-03-23T01:46:47;99397.13;;;3.24;81.87
27840;BME280;15207;42.182;24.308;2024-03-23T01:49:13;99399.94;;;3.21;82.67
27840;BME280;15207;42.182;24.308;2024-03-23T01:51:39;99400.72;;;3.23;81.67
27840;BME280;15207;42.182;24.308;2024-03-23T01:54:05;99411.59;;;3.16;81.11
27840;BME280;15207;42.182;24.308;2024-03-23T01:56:33;99401.59;;;3.23;81.05
27840;BME280;15207;42.182;24.308;2024-03-23T01:59:01;99394.06;;;3.33;80.02
27840;BME280;15207;42.182;24.308;2024-03-23T02:01:26;99399.66;;;3.27;81.22
27840;BME280;15207;42.182;24.308;2024-03-23T02:03:52;99404.59;;;3.15;80.89
27840;BME280;15207;42.182;24.308;2024-03-23T02:06:17;99406.25;;;3.18;81.46
27840;BME280;15207;42.182;24.308;2024-03-23T02:08:43;99402.22;;;3.28;80.68
27840;BME280;15207;42.182;24.308;2024-03-23T02:11:09;99408.25;;;3.13;83.08
27840;BME280;15207;42.182;24.308;2024-03-23T02:13:34;99410.59;;;3.19;83.44
27840;BME280;15207;42.182;24.308;2024-03-23T02:16:00;99405.59;;;3.32;82.02
27840;BME280;15207;42.182;24.308;2024-03-23T02:18:25;99401.47;;;3.26;81.18
27840;BME280;15207;42.182;24.308;2024-03-23T02:20:51;99408.88;;;3.18;80.37
27840;BME280;15207;42.182;24.308;2024-03-23T02:23:17;99399.84;;;3.41;80.29
27840;BME280;15207;42.182;24.308;2024-03-23T02:25:45;99407.44;;;3.11;80.32
27840;BME280;15207;42.182;24.308;2024-03-23T02:28:11;99409.50;;;2.85;81.62
27840;BME280;15207;42.182;24.308;2024-03-23T02:30:36;99405.38;;;2.58;85.57
27840;BME280;15207;42.182;24.308;2024-03-23T02:33:02;99407.06;;;2.80;88.40
27840;BME280;15207;42.182;24.308;2024-03-23T02:35:27;99406.38;;;2.76;87.54
27840;BME280;15207;42.182;24.308;2024-03-23T02:37:53;99398.72;;;2.89;87.16
27840;BME280;15207;42.182;24.308;2024-03-23T02:40:20;99397.38;;;3.00;85.72
27840;BME280;15207;42.182;24.308;2024-03-23T02:42:46;99393.66;;;3.04;85.48
27840;BME280;15207;42.182;24.308;2024-03-23T02:45:11;99401.72;;;3.20;84.86
27840;BME280;15207;42.182;24.308;2024-03-23T02:47:37;99401.41;;;2.69;85.81
27840;BME280;15207;42.182;24.308;2024-03-23T02:50:03;99403.50;;;2.81;86.88
27840;BME280;15207;42.182;24.308;2024-03-23T02:52:29;99398.94;;;2.45;87.92
27840;BME280;15207;42.182;24.308;2024-03-23T02:54:55;99393.50;;;2.06;94.46
27840;BME280;15207;42.182;24.308;2024-03-23T02:57:20;99398.63;;;2.32;95.65
27840;BME280;15207;42.182;24.308;2024-03-23T02:59:45;99398.06;;;2.44;96.36
27840;BME280;15207;42.182;24.308;2024-03-23T03:02:11;99392.75;;;2.65;94.62
27840;BME280;15207;42.182;24.308;2024-03-23T03:04:37;99390.03;;;2.67;92.63
27840;BME280;15207;42.182;24.308;2024-03-23T03:07:02;99388.97;;;2.71;91.79
27840;BME280;15207;42.182;24.308;2024-03-23T03:09:28;99394.91;;;2.76;89.80
27840;BME280;15207;42.182;24.308;2024-03-23T03:11:53;99389.59;;;2.57;89.52
27840;BME280;15207;42.182;24.308;2024-03-23T03:14:18;99386.22;;;2.32;91.01
27840;BME280;15207;42.182;24.308;2024-03-23T03:16:45;99397.91;;;1.63;96.00
27840;BME280;15207;42.182;24.308;2024-03-23T03:19:10;99394.16;;;1.91;96.04
27840;BME280;15207;42.182;24.308;2024-03-23T03:21:36;99398.34;;;2.17;94.03
27840;BME280;15207;42.182;24.308;2024-03-23T03:24:06;99399.78;;;2.24;92.05
27840;BME280;15207;42.182;24.308;2024-03-23T03:26:31;99400.94;;;2.19;89.02
27840;BME280;15207;42.182;24.308;2024-03-23T03:28:57;99396.31;;;2.24;90.08
27840;BME280;15207;42.182;24.308;2024-03-23T03:31:22;99397.53;;;2.15;90.46
27840;BME280;15207;42.182;24.308;2024-03-23T03:33:49;99405.06;;;2.45;88.90
27840;BME280;15207;42.182;24.308;2024-03-23T03:36:15;99394.88;;;2.36;88.05
27840;BME280;15207;42.182;24.308;2024-03-23T03:38:41;99397.69;;;2.33;87.63
27840;BME280;15207;42.182;24.308;2024-03-23T03:41:06;99401.16;;;2.33;87.34
27840;BME280;15207;42.182;24.308;2024-03-23T03:43:32;99397.34;;;2.20;86.08
27840;BME280;15207;42.182;24.308;2024-03-23T03:45:59;99390.13;;;2.03;87.83
27840;BME280;15207;42.182;24.308;2024-03-23T03:48:25;99402.09;;;2.11;88.92
27840;BME280;15207;42.182;24.308;2024-03-23T03:50:52;99392.34;;;2.34;87.42
27840;BME280;15207;42.182;24.308;2024-03-23T03:53:17;99392.19;;;2.17;88.97
27840;BME280;15207;42.182;24.308;2024-03-23T03:55:43;99398.94;;;2.24;88.87
27840;BME280;15207;42.182;24.308;2024-03-23T03:58:08;99397.53;;;2.15;88.68
27840;BME280;15207;42.182;24.308;2024-03-23T04:00:33;99396.22;;;2.25;88.08
27840;BME280;15207;42.182;24.308;2024-03-23T04:02:59;99393.84;;;2.19;87.74
27840;BME280;15207;42.182;24.308;2024-03-23T04:05:24;99406.44;;;2.13;88.16
27840;BME280;15207;42.182;24.308;2024-03-23T04:07:50;99397.34;;;2.20;88.36
27840;BME280;15207;42.182;24.308;2024-03-23T04:10:15;99413.81;;;2.27;86.88
27840;BME280;15207;42.182;24.308;2024-03-23T04:12:41;99410.22;;;2.07;88.94
27840;BME280;15207;42.182;24.308;2024-03-23T04:15:07;99409.19;;;2.11;88.37
27840;BME280;15207;42.182;24.308;2024-03-23T04:17:33;99415.56;;;1.84;90.46
27840;BME280;15207;42.182;24.308;2024-03-23T04:20:00;99420.03;;;1.60;92.34
27840;BME280;15207;42.182;24.308;2024-03-23T04:22:25;99419.69;;;1.90;90.67
27840;BME280;15207;42.182;24.308;2024-03-23T04:24:55;99419.75;;;2.11;89.95
27840;BME280;15207;42.182;24.308;2024-03-23T04:27:21;99421.69;;;2.06;87.72
27840;BME280;15207;42.182;24.308;2024-03-23T04:29:50;99421.81;;;1.82;90.15
27840;BME280;15207;42.182;24.308;2024-03-23T04:32:15;99422.50;;;1.87;90.52
27840;BME280;15207;42.182;24.308;2024-03-23T04:34:42;99419.97;;;1.84;90.70
27840;BME280;15207;42.182;24.308;2024-03-23T04:37:08;99427.13;;;2.03;90.15
27840;BME280;15207;42.182;24.308;2024-03-23T04:39:35;99416.22;;;1.90;90.83
27840;BME280;15207;42.182;24.308;2024-03-23T04:42:01;99426.22;;;1.81;90.06
27840;BME280;15207;42.182;24.308;2024-03-23T04:44:26;99421.88;;;2.23;89.73
27840;BME280;15207;42.182;24.308;2024-03-23T04:46:51;99420.81;;;2.28;88.59
27840;BME280;15207;42.182;24.308;2024-03-23T04:49:17;99423.72;;;2.21;88.35
27840;BME280;15207;42.182;24.308;2024-03-23T04:51:42;99427.69;;;2.11;87.83
27840;BME280;15207;42.182;24.308;2024-03-23T04:54:11;99427.75;;;2.09;89.43
27840;BME280;15207;42.182;24.308;2024-03-23T04:56:37;99428.13;;;2.42;89.59
27840;BME280;15207;42.182;24.308;2024-03-23T04:59:02;99426.75;;;2.33;91.73
27840;BME280;15207;42.182;24.308;2024-03-23T05:01:32;99429.84;;;2.63;89.70
27840;BME280;15207;42.182;24.308;2024-03-23T05:03:58;99417.84;;;2.75;88.26
27840;BME280;15207;42.182;24.308;2024-03-23T05:06:24;99426.03;;;2.90;87.79
27840;BME280;15207;42.182;24.308;2024-03-23T05:08:51;99426.53;;;3.17;86.17
27840;BME280;15207;42.182;24.308;2024-03-23T05:11:16;99416.97;;;3.15;85.97
27840;BME280;15207;42.182;24.308;2024-03-23T05:13:42;99418.16;;;3.46;83.95
27840;BME280;15207;42.182;24.308;2024-03-23T05:16:07;99420.28;;;3.57;82.70
27840;BME280;15207;42.182;24.308;2024-03-23T05:18:33;99417.09;;;3.87;80.86
27840;BME280;15207;42.182;24.308;2024-03-23T05:20:59;99418.63;;;4.80;76.01
27840;BME280;15207;42.182;24.308;2024-03-23T05:23:25;99414.03;;;5.15;72.91
27840;BME280;15207;42.182;24.308;2024-03-23T05:25:50;99418.59;;;5.78;68.83
27840;BME280;15207;42.182;24.308;2024-03-23T05:28:17;99408.22;;;6.34;65.33
27840;BME280;15207;42.182;24.308;2024-03-23T05:30:42;99414.78;;;6.29;63.35
27840;BME280;15207;42.182;24.308;2024-03-23T05:33:08;99410.88;;;7.09;61.88
27840;BME280;15207;42.182;24.308;2024-03-23T05:35:33;99400.06;;;7.94;58.54
27840;BME280;15207;42.182;24.308;2024-03-23T05:37:59;99398.13;;;8.24;56.44
27840;BME280;15207;42.182;24.308;2024-03-23T05:40:26;99403.44;;;8.24;57.09
27840;BME280;15207;42.182;24.308;2024-03-23T05:42:51;99403.03;;;9.08;53.41
27840;BME280;15207;42.182;24.308;2024-03-23T05:45:21;99396.09;;;9.19;52.27
27840;BME280;15207;42.182;24.308;2024-03-23T05:47:48;99391.38;;;9.22;52.12
27840;BME280;15207;42.182;24.308;2024-03-23T05:50:13;99392.38;;;8.69;55.23
27840;BME280;15207;42.182;24.308;2024-03-23T05:52:39;99392.25;;;9.10;55.66
27840;BME280;15207;42.182;24.308;2024-03-23T05:55:05;99392.19;;;9.36;54.73
27840;BME280;15207;42.182;24.308;2024-03-23T05:57:30;99395.41;;;8.65;56.14
27840;BME280;15207;42.182;24.308;2024-03-23T05:59:56;99392.69;;;9.04;55.13
27840;BME280;15207;42.182;24.308;2024-03-23T06:02:22;99395.13;;;9.82;52.42
27840;BME280;15207;42.182;24.308;2024-03-23T06:04:47;99389.25;;;10.37;50.68
27840;BME280;15207;42.182;24.308;2024-03-23T06:07:13;99387.44;;;9.52;52.47
27840;BME280;15207;42.182;24.308;2024-03-23T06:09:42;99385.78;;;9.87;50.98
27840;BME280;15207;42.182;24.308;2024-03-23T06:12:08;99385.88;;;9.86;52.04
27840;BME280;15207;42.182;24.308;2024-03-23T06:14:34;99386.91;;;9.96;51.24
27840;BME280;15207;42.182;24.308;2024-03-23T06:17:00;99388.69;;;10.20;50.00
27840;BME280;15207;42.182;24.308;2024-03-23T06:19:25;99385.75;;;10.48;49.83
27840;BME280;15207;42.182;24.308;2024-03-23T06:21:54;99382.81;;;10.03;48.23
27840;BME280;15207;42.182;24.308;2024-03-23T06:24:22;99384.00;;;9.99;49.31
27840;BME280;15207;42.182;24.308;2024-03-23T06:26:47;99380.81;;;9.94;48.91
27840;BME280;15207;42.182;24.308;2024-03-23T06:29:13;99377.97;;;10.20;48.18
27840;BME280;15207;42.182;24.308;2024-03-23T06:31:38;99386.44;;;10.02;49.22
27840;BME280;15207;42.182;24.308;2024-03-23T06:34:04;99389.53;;;10.09;49.52
27840;BME280;15207;42.182;24.308;2024-03-23T06:36:29;99394.59;;;10.01;49.73
27840;BME280;15207;42.182;24.308;2024-03-23T06:38:56;99393.91;;;9.61;51.29
27840;BME280;15207;42.182;24.308;2024-03-23T06:41:21;99389.72;;;9.95;51.11
27840;BME280;15207;42.182;24.308;2024-03-23T06:43:47;99392.63;;;10.03;50.62
27840;BME280;15207;42.182;24.308;2024-03-23T06:46:12;99392.44;;;9.57;52.31
27840;BME280;15207;42.182;24.308;2024-03-23T06:48:38;99388.44;;;10.12;51.49
27840;BME280;15207;42.182;24.308;2024-03-23T06:51:03;99389.13;;;10.02;51.08
27840;BME280;15207;42.182;24.308;2024-03-23T06:53:29;99392.22;;;10.21;51.70
27840;BME280;15207;42.182;24.308;2024-03-23T06:55:54;99388.56;;;10.22;50.98
27840;BME280;15207;42.182;24.308;2024-03-23T06:58:21;99384.53;;;10.52;50.27
27840;BME280;15207;42.182;24.308;2024-03-23T07:00:47;99381.88;;;10.63;51.18
27840;BME280;15207;42.182;24.308;2024-03-23T07:03:13;99388.09;;;10.52;50.66
27840;BME280;15207;42.182;24.308;2024-03-23T07:05:38;99381.63;;;10.78;49.75
27840;BME280;15207;42.182;24.308;2024-03-23T07:08:04;99382.75;;;10.98;49.45
27840;BME280;15207;42.182;24.308;2024-03-23T07:10:30;99373.72;;;10.65;51.07
27840;BME280;15207;42.182;24.308;2024-03-23T07:12:55;99375.19;;;10.80;50.52
27840;BME280;15207;42.182;24.308;2024-03-23T07:15:20;99369.72;;;10.70;50.08
27840;BME280;15207;42.182;24.308;2024-03-23T07:17:47;99368.00;;;11.04;47.98
27840;BME280;15207;42.182;24.308;2024-03-23T07:20:13;99373.38;;;10.92;48.19
27840;BME280;15207;42.182;24.308;2024-03-23T07:22:38;99373.00;;;10.85;48.20
27840;BME280;15207;42.182;24.308;2024-03-23T07:25:05;99367.34;;;10.43;49.52
27840;BME280;15207;42.182;24.308;2024-03-23T07:27:31;99369.59;;;10.72;48.63
27840;BME280;15207;42.182;24.308;2024-03-23T07:29:57;99360.81;;;10.70;49.26
27840;BME280;15207;42.182;24.308;2024-03-23T07:32:22;99359.84;;;10.71;48.92
27840;BME280;15207;42.182;24.308;2024-03-23T07:34:48;99367.63;;;10.63;49.84
27840;BME280;15207;42.182;24.308;2024-03-23T07:37:13;99350.34;;;10.90;49.06
27840;BME280;15207;42.182;24.308;2024-03-23T07:39:41;99353.56;;;11.50;47.75
27840;BME280;15207;42.182;24.308;2024-03-23T07:42:07;99348.97;;;11.30;47.65
27840;BME280;15207;42.182;24.308;2024-03-23T07:44:32;99343.38;;;11.21;47.49
27840;BME280;15207;42.182;24.308;2024-03-23T07:47:00;99347.44;;;11.60;46.64
27840;BME280;15207;42.182;24.308;2024-03-23T07:49:26;99339.88;;;11.86;45.25
27840;BME280;15207;42.182;24.308;2024-03-23T07:51:51;99335.84;;;12.56;44.03
27840;BME280;15207;42.182;24.308;2024-03-23T07:54:17;99330.69;;;12.43;44.59
27840;BME280;15207;42.182;24.308;2024-03-23T07:56:42;99336.38;;;12.50;43.03
27840;BME280;15207;42.182;24.308;2024-03-23T07:59:07;99326.78;;;12.57;42.71
27840;BME280;15207;42.182;24.308;2024-03-23T08:01:33;99326.16;;;12.43;43.07
27840;BME280;15207;42.182;24.308;2024-03-23T08:03:59;99316.88;;;12.48;43.82
27840;BME280;15207;42.182;24.308;2024-03-23T08:06:25;99319.34;;;12.61;43.26
27840;BME280;15207;42.182;24.308;2024-03-23T08:08:57;99313.16;;;13.21;42.30
27840;BME280;15207;42.182;24.308;2024-03-23T08:11:27;99312.13;;;13.02;42.40
27840;BME280;15207;42.182;24.308;2024-03-23T08:13:52;99307.75;;;12.70;42.68
27840;BME280;15207;42.182;24.308;2024-03-23T08:16:18;99301.72;;;13.29;42.92
27840;BME280;15207;42.182;24.308;2024-03-23T08:18:43;99301.69;;;12.37;42.91
27840;BME280;15207;42.182;24.308;2024-03-23T08:21:09;99303.25;;;12.39;43.40
27840;BME280;15207;42.182;24.308;2024-03-23T08:23:35;99305.16;;;12.27;43.67
27840;BME280;15207;42.182;24.308;2024-03-23T08:26:05;99292.25;;;12.42;44.86
27840;BME280;15207;42.182;24.308;2024-03-23T08:28:30;99291.28;;;12.53;43.74
27840;BME280;15207;42.182;24.308;2024-03-23T08:30:56;99289.91;;;13.10;42.80
27840;BME280;15207;42.182;24.308;2024-03-23T08:33:23;99287.84;;;13.33;42.43
27840;BME280;15207;42.182;24.308;2024-03-23T08:35:58;99286.75;;;12.85;42.67
27840;BME280;15207;42.182;24.308;2024-03-23T08:38:24;99281.88;;;12.38;43.77
27840;BME280;15207;42.182;24.308;2024-03-23T08:43:26;99270.66;;;13.15;44.60
27840;BME280;15207;42.182;24.308;2024-03-23T08:45:52;99267.97;;;13.05;42.73
27840;BME280;15207;42.182;24.308;2024-03-23T08:48:21;99270.06;;;12.81;44.31
27840;BME280;15207;42.182;24.308;2024-03-23T08:50:47;99266.72;;;13.09;43.63
27840;BME280;15207;42.182;24.308;2024-03-23T08:53:12;99263.00;;;12.90;42.96
27840;BME280;15207;42.182;24.308;2024-03-23T08:55:38;99258.25;;;13.23;43.17
27840;BME280;15207;42.182;24.308;2024-03-23T08:58:03;99260.81;;;13.35;42.42
27840;BME280;15207;42.182;24.308;2024-03-23T09:00:29;99249.63;;;13.30;42.96
27840;BME280;15207;42.182;24.308;2024-03-23T09:02:55;99246.22;;;13.28;42.63
27840;BME280;15207;42.182;24.308;2024-03-23T09:05:22;99242.84;;;13.55;42.06
27840;BME280;15207;42.182;24.308;2024-03-23T09:07:49;99241.97;;;13.45;41.83
27840;BME280;15207;42.182;24.308;2024-03-23T09:10:14;99232.66;;;13.69;41.81
27840;BME280;15207;42.182;24.308;2024-03-23T09:12:40;99233.69;;;14.15;41.06
27840;BME280;15207;42.182;24.308;2024-03-23T09:15:05;99231.25;;;14.22;40.82
27840;BME280;15207;42.182;24.308;2024-03-23T09:17:31;99226.75;;;14.51;39.91
27840;BME280;15207;42.182;24.308;2024-03-23T09:19:56;99219.22;;;14.83;40.53
27840;BME280;15207;42.182;24.308;2024-03-23T09:22:22;99218.81;;;14.49;41.03
27840;BME280;15207;42.182;24.308;2024-03-23T09:24:47;99212.75;;;15.22;40.26
27840;BME280;15207;42.182;24.308;2024-03-23T09:27:12;99206.09;;;15.16;39.93
27840;BME280;15207;42.182;24.308;2024-03-23T09:29:37;99193.66;;;14.87;40.25
27840;BME280;15207;42.182;24.308;2024-03-23T09:32:03;99196.78;;;15.28;39.74
27840;BME280;15207;42.182;24.308;2024-03-23T09:34:28;99182.47;;;15.10;39.97
27840;BME280;15207;42.182;24.308;2024-03-23T09:36:54;99180.66;;;15.37;39.63
27840;BME280;15207;42.182;24.308;2024-03-23T09:39:19;99177.91;;;15.73;38.28
27840;BME280;15207;42.182;24.308;2024-03-23T09:41:45;99180.53;;;15.91;38.61
27840;BME280;15207;42.182;24.308;2024-03-23T09:44:11;99169.00;;;15.81;38.87
27840;BME280;15207;42.182;24.308;2024-03-23T09:46:36;99172.94;;;15.86;37.87
27840;BME280;15207;42.182;24.308;2024-03-23T09:49:06;99169.06;;;15.89;37.22
27840;BME280;15207;42.182;24.308;2024-03-23T09:51:35;99168.81;;;16.00;37.58
27840;BME280;15207;42.182;24.308;2024-03-23T09:54:01;99161.53;;;15.74;38.52
27840;BME280;15207;42.182;24.308;2024-03-23T09:56:26;99158.50;;;15.96;38.72
27840;BME280;15207;42.182;24.308;2024-03-23T09:59:00;99150.31;;;16.14;37.54
27840;BME280;15207;42.182;24.308;2024-03-23T10:01:25;99139.41;;;15.44;39.16
27840;BME280;15207;42.182;24.308;2024-03-23T10:03:51;99140.84;;;15.83;37.60
27840;BME280;15207;42.182;24.308;2024-03-23T10:06:16;99141.28;;;15.70;37.86
27840;BME280;15207;42.182;24.308;2024-03-23T10:08:46;99131.28;;;16.24;38.35
27840;BME280;15207;42.182;24.308;2024-03-23T10:11:16;99136.78;;;16.49;38.27
27840;BME280;15207;42.182;24.308;2024-03-23T10:13:42;99134.91;;;16.41;37.62
27840;BME280;15207;42.182;24.308;2024-03-23T10:16:08;99129.59;;;16.91;36.48
27840;BME280;15207;42.182;24.308;2024-03-23T10:18:37;99127.94;;;16.98;36.91
27840;BME280;15207;42.182;24.308;2024-03-23T10:21:06;99125.00;;;16.66;36.34
27840;BME280;15207;42.182;24.308;2024-03-23T10:23:33;99117.50;;;17.20;36.70
27840;BME280;15207;42.182;24.308;2024-03-23T10:26:18;99113.03;;;16.86;36.03
27840;BME280;15207;42.182;24.308;2024-03-23T10:29:02;99106.66;;;17.12;35.20
27840;BME280;15207;42.182;24.308;2024-03-23T10:31:33;99095.31;;;16.91;35.36
27840;BME280;15207;42.182;24.308;2024-03-23T10:34:03;99105.59;;;16.63;35.75
27840;BME280;15207;42.182;24.308;2024-03-23T10:36:29;99097.59;;;16.45;35.49
27840;BME280;15207;42.182;24.308;2024-03-23T10:38:55;99092.66;;;16.32;37.14
27840;BME280;15207;42.182;24.308;2024-03-23T10:41:26;99080.69;;;16.34;37.43
27840;BME280;15207;42.182;24.308;2024-03-23T10:43:53;99080.34;;;16.37;38.35
27840;BME280;15207;42.182;24.308;2024-03-23T10:46:20;99076.19;;;16.68;37.86
27840;BME280;15207;42.182;24.308;2024-03-23T10:48:46;99073.97;;;16.55;36.91
27840;BME280;15207;42.182;24.308;2024-03-23T10:51:12;99065.34;;;16.43;36.87
27840;BME280;15207;42.182;24.308;2024-03-23T10:53:39;99058.59;;;16.47;36.63
27840;BME280;15207;42.182;24.308;2024-03-23T10:56:06;99050.47;;;16.39;36.81
27840;BME280;15207;42.182;24.308;2024-03-23T10:58:39;99050.31;;;16.57;36.93
27840;BME280;15207;42.182;24.308;2024-03-23T11:01:05;99049.47;;;16.48;37.07
27840;BME280;15207;42.182;24.308;2024-03-23T11:05:56;99038.00;;;16.71;35.88
27840;BME280;15207;42.182;24.308;2024-03-23T11:08:35;99030.91;;;16.70;36.42
27840;BME280;15207;42.182;24.308;2024-03-23T11:11:21;99026.69;;;16.76;36.78
27840;BME280;15207;42.182;24.308;2024-03-23T11:13:52;99023.13;;;17.25;35.78
27840;BME280;15207;42.182;24.308;2024-03-23T11:16:28;99016.53;;;17.36;35.69
27840;BME280;15207;42.182;24.308;2024-03-23T11:22:00;99002.34;;;17.09;34.49
27840;BME280;15207;42.182;24.308;2024-03-23T11:24:26;98997.97;;;16.75;34.72
27840;BME280;15207;42.182;24.308;2024-03-23T11:26:51;98993.22;;;16.69;34.98
27840;BME280;15207;42.182;24.308;2024-03-23T11:29:17;98987.63;;;17.12;35.85
27840;BME280;15207;42.182;24.308;2024-03-23T11:34:12;98972.13;;;17.54;34.71
27840;BME280;15207;42.182;24.308;2024-03-23T11:36:38;98970.56;;;17.68;34.24
27840;BME280;15207;42.182;24.308;2024-03-23T11:39:19;98968.91;;;17.58;33.62
27840;BME280;15207;42.182;24.308;2024-03-23T11:42:03;98957.88;;;17.12;33.15
27840;BME280;15207;42.182;24.308;2024-03-23T11:44:29;98963.66;;;16.92;32.32
27840;BME280;15207;42.182;24.308;2024-03-23T11:47:07;98949.28;;;17.00;32.63
27840;BME280;15207;42.182;24.308;2024-03-23T11:49:32;98954.91;;;17.47;32.42
27840;BME280;15207;42.182;24.308;2024-03-23T11:51:58;98935.75;;;17.56;32.41
27840;BME280;15207;42.182;24.308;2024-03-23T11:54:24;98937.47;;;17.57;33.14
27840;BME280;15207;42.182;24.308;2024-03-23T11:57:00;98935.13;;;17.86;32.47
27840;BME280;15207;42.182;24.308;2024-03-23T11:59:35;98929.88;;;17.84;32.84
27840;BME280;15207;42.182;24.308;2024-03-23T12:02:09;98923.25;;;17.55;31.83
27840;BME280;15207;42.182;24.308;2024-03-23T12:04:41;98910.44;;;18.04;32.04
27840;BME280;15207;42.182;24.308;2024-03-23T12:09:40;98904.47;;;17.85;32.48
27840;BME280;15207;42.182;24.308;2024-03-23T12:12:18;98899.06;;;17.85;31.74
27840;BME280;15207;42.182;24.308;2024-03-23T12:14:44;98898.22;;;17.85;32.32
27840;BME280;15207;42.182;24.308;2024-03-23T12:17:13;98895.00;;;17.81;33.45
27840;BME280;15207;42.182;24.308;2024-03-23T12:19:40;98899.28;;;17.76;31.66
27840;BME280;15207;42.182;24.308;2024-03-23T12:22:07;98884.13;;;18.21;31.02
27840;BME280;15207;42.182;24.308;2024-03-23T12:24:34;98881.41;;;18.21;30.59
27840;BME280;15207;42.182;24.308;2024-03-23T12:27:04;98886.88;;;18.13;29.49
27840;BME280;15207;42.182;24.308;2024-03-23T12:29:31;98879.16;;;18.02;29.08
27840;BME280;15207;42.182;24.308;2024-03-23T12:31:58;98868.94;;;18.12;28.39
27840;BME280;15207;42.182;24.308;2024-03-23T12:34:24;98873.00;;;18.31;28.29
27840;BME280;15207;42.182;24.308;2024-03-23T12:36:49;98859.50;;;18.00;29.29
27840;BME280;15207;42.182;24.308;2024-03-23T12:39:14;98854.44;;;18.28;28.94
27840;BME280;15207;42.182;24.308;2024-03-23T12:41:40;98863.19;;;18.69;28.94
27840;BME280;15207;42.182;24.308;2024-03-23T12:44:05;98858.19;;;18.42;29.21
27840;BME280;15207;42.182;24.308;2024-03-23T12:46:33;98852.72;;;18.66;29.14
27840;BME280;15207;42.182;24.308;2024-03-23T12:48:58;98848.84;;;18.45;30.24
27840;BME280;15207;42.182;24.308;2024-03-23T12:51:24;98850.97;;;18.34;28.96
27840;BME280;15207;42.182;24.308;2024-03-23T12:53:50;98838.97;;;18.14;29.10
27840;BME280;15207;42.182;24.308;2024-03-23T12:56:16;98836.25;;;18.14;29.39
27840;BME280;15207;42.182;24.308;2024-03-23T12:58:42;98833.97;;;18.26;29.14
27840;BME280;15207;42.182;24.308;2024-03-23T13:01:07;98833.53;;;18.52;29.50
27840;BME280;15207;42.182;24.308;2024-03-23T13:03:32;98821.34;;;18.33;28.46
27840;BME280;15207;42.182;24.308;2024-03-23T13:05:58;98828.06;;;18.75;28.60
27840;BME280;15207;42.182;24.308;2024-03-23T13:08:23;98823.56;;;18.68;28.64
27840;BME280;15207;42.182;24.308;2024-03-23T13:10:52;98815.50;;;18.59;28.59
27840;BME280;15207;42.182;24.308;2024-03-23T13:13:17;98812.69;;;18.53;28.32
27840;BME280;15207;42.182;24.308;2024-03-23T13:15:49;98801.09;;;18.59;27.55
27840;BME280;15207;42.182;24.308;2024-03-23T13:18:15;98798.00;;;18.47;26.66
27840;BME280;15207;42.182;24.308;2024-03-23T13:20:40;98795.84;;;18.42;28.11
27840;BME280;15207;42.182;24.308;2024-03-23T13:23:05;98787.22;;;18.23;27.02
27840;BME280;15207;42.182;24.308;2024-03-23T13:25:31;98780.91;;;18.61;27.63
27840;BME280;15207;42.182;24.308;2024-03-23T13:27:56;98778.44;;;18.36;28.66
27840;BME280;15207;42.182;24.308;2024-03-23T13:30:21;98771.44;;;18.42;28.28
27840;BME280;15207;42.182;24.308;2024-03-23T13:32:47;98766.25;;;18.56;28.14
27840;BME280;15207;42.182;24.308;2024-03-23T13:35:12;98764.53;;;18.55;28.70
27840;BME280;15207;42.182;24.308;2024-03-23T13:37:37;98760.16;;;18.69;26.77
27840;BME280;15207;42.182;24.308;2024-03-23T13:40:03;98768.72;;;18.87;27.44
27840;BME280;15207;42.182;24.308;2024-03-23T13:42:29;98758.19;;;18.77;27.90
27840;BME280;15207;42.182;24.308;2024-03-23T13:44:54;98756.66;;;18.90;29.19
27840;BME280;15207;42.182;24.308;2024-03-23T13:47:19;98756.47;;;18.92;29.13
27840;BME280;15207;42.182;24.308;2024-03-23T13:49:45;98756.31;;;18.78;30.86
27840;BME280;15207;42.182;24.308;2024-03-23T13:52:11;98756.09;;;18.95;29.00
27840;BME280;15207;42.182;24.308;2024-03-23T13:54:37;98755.94;;;18.81;28.74
27840;BME280;15207;42.182;24.308;2024-03-23T13:57:02;98746.19;;;18.87;28.60